• Join FlightAware (Why Join?)
  • Login
  • US Flag 
08:38PM EDT


 

Airport Tracker/Info


-or-


 

Live Flight TrackerFlight Track Log ✈ ELT222 ✈ 15-Sep-2013 ✈ KGRB - KFCM

Flight Track Log - Related Links

Times and Time Zones

All times are in EDT time to prevent confusion due to time zone crossing. See the ELT222 flight status page for this flight to view local times or setup timezone preferences in your user account.

Time Position Orientation Groundspeed Altitude Reporting Facility
EDT Latitude Longitude Course Direction KTS MPH feet Rate Location/Type
05:03PM 44.4919 -88.3164 270° West 268 308 7,000  Level Minneapolis Center
05:04PM 44.5117 -88.4261 284° West 276 318 10,500 3,000 Climbing Minneapolis Center
05:05PM 44.5269 -88.5311 282° West 278 320 13,300 2,700 Climbing Minneapolis Center
05:06PM 44.5453 -88.6394 283° West 285 328 16,100 2,580 Climbing Minneapolis Center
05:07PM 44.5656 -88.7528 284° West 296 341 18,700 2,340 Climbing Minneapolis Center
05:08PM 44.5456 -88.8477 270° West  Level Estimated
05:08PM 44.5842 -88.8639 283° West 293 337 21,000  Level Minneapolis Center
05:09PM 44.6050 -88.9792 284° West 304 350 23,000 2,160 Climbing Minneapolis Center
05:10PM 44.6292 -89.1183 284° West 303 349 25,500 1,440 Climbing Minneapolis Center
05:11PM 44.6481 -89.2361 283° West 311 358 26,000 240 Climbing Minneapolis Center
05:12PM 44.6708 -89.3711 283° West 350 403 26,000  Level Minneapolis Center
05:13PM 44.6933 -89.5125 283° West 369 425 26,000  Level Minneapolis Center
05:14PM 44.7175 -89.6578 283° West 380 437 26,000  Level Minneapolis Center
05:15PM 44.7417 -89.8069 283° West 389 448 26,000  Level Minneapolis Center
05:16PM 44.7656 -89.9561 283° West 391 450 26,000  Level Minneapolis Center
05:17PM 44.7944 -90.1367 283° West 393 452 26,000  Level Minneapolis Center
05:18PM 44.8183 -90.2869 283° West 393 452 26,000  Level Minneapolis Center
05:19PM 44.8419 -90.4378 283° West 394 453 26,000 -420 Level Minneapolis Center
05:20PM 44.8656 -90.5878 283° West 394 453 25,200 -1,140 Descending Minneapolis Center
05:21PM 44.8889 -90.7372 282° West 391 450 23,700 -1,500 Descending Minneapolis Center
05:23PM 44.9108 -90.8867 282° West 391 450 22,200 -1,500 Descending Minneapolis Center
05:24PM 44.9328 -91.0381 282° West 384 442 20,700 -1,620 Descending Minneapolis Center
05:25PM 44.9586 -91.2106 282° West 378 435 18,900 -1,440 Descending Minneapolis Center
05:26PM 44.9792 -91.3514 282° West 372 428 17,800 -960 Descending Minneapolis Center
05:27PM 44.9994 -91.4931 281° West 370 426 17,000 -900 Descending Minneapolis Center
05:28PM 45.0231 -91.6372 283° West 374 430 16,000 -1,020 Descending Minneapolis Center
05:29PM 45.0439 -91.7753 282° West 366 421 15,000 -1,260 Descending Minneapolis Center
05:30PM 45.0631 -91.9086 282° West 352 405 13,500 -1,620 Descending Minneapolis Center
05:31PM 45.0853 -92.0672 281° West 345 397 11,700 -1,500 Descending Minneapolis Center
05:32PM 45.1019 -92.1842 281° West 309 356 10,400 -1,260 Descending Minneapolis Center
05:33PM 45.1161 -92.2908 281° West 282 325 9,100 -1,200 Descending Minneapolis Center
05:34PM 45.1300 -92.3986 280° West 280 322 8,000 -900 Descending Minneapolis Center
05:35PM 45.1325 -92.5094 272° West 283 326 7,300 -960 Descending Minneapolis Center
05:36PM 45.1350 -92.6189 272° West 280 322 6,100 -1,140 Descending Minneapolis Center
05:37PM 45.0997 -92.7356 247° West 275 316 5,000 -540 Descending Minneapolis Center
05:38PM 45.0633 -92.8264 240° Southwest 267 307 5,000  Level Minneapolis Center
05:39PM 45.0275 -92.9194 241° Southwest 270 311 5,000  Level Minneapolis Center
05:40PM 44.9911 -93.0144 242° Southwest 275 316 5,000  Level Minneapolis Center
05:41PM 44.9467 -93.0975 233° Southwest 271 312 5,000 -180 Level Minneapolis Center
05:42PM 44.8747 -93.1781 218° Southwest 276 318 4,700 -900 Descending Minneapolis Center
05:43PM 44.8192 -93.2447 220° Southwest 266 306 3,200 -1,080 Descending Minneapolis Center
05:44PM 44.7944 -93.3222 246° West 219 252 2,500 -360 Descending Minneapolis Center
05:45PM 44.7906 -93.3986 266° West 201 231 2,500  Level Minneapolis Center
05:46PM 44.7917 -93.4933 271° West 201 231 2,500 -120 Level Minneapolis Center
05:47PM 44.8008 -93.5500 283° West 159 183 2,300 -360 Descending Minneapolis Center
05:48PM 44.8333 -93.5408 11° North 126 145 1,800 -540 Descending Minneapolis Center
05:49PM 44.8325 -93.4939 91° East 121 139 1,200 -600 Descending Minneapolis Center
05:51PM 44.8275 -93.4586 90° East  Level Estimated
05:58PM 44.8275 -93.4586 90° East  Level Estimated